sensor_id;sensor_type;location;lat;lon;timestamp;P1;durP1;ratioP1;P2;durP2;ratioP2
7316;SDS011;3699;51.462;6.696;2022-10-16T00:00:31;3.70;;;3.40;;
7316;SDS011;3699;51.462;6.696;2022-10-16T00:02:58;9.30;;;3.77;;
7316;SDS011;3699;51.462;6.696;2022-10-16T00:05:25;8.17;;;3.60;;
7316;SDS011;3699;51.462;6.696;2022-10-16T00:07:51;6.23;;;3.70;;
7316;SDS011;3699;51.462;6.696;2022-10-16T00:10:18;5.50;;;3.70;;
7316;SDS011;3699;51.462;6.696;2022-10-16T00:12:45;11.73;;;3.77;;
7316;SDS011;3699;51.462;6.696;2022-10-16T00:15:13;7.77;;;4.03;;
7316;SDS011;3699;51.462;6.696;2022-10-16T00:17:40;4.10;;;3.60;;
7316;SDS011;3699;51.462;6.696;2022-10-16T00:20:07;12.60;;;4.77;;
7316;SDS011;3699;51.462;6.696;2022-10-16T00:22:34;4.83;;;3.80;;
7316;SDS011;3699;51.462;6.696;2022-10-16T00:25:01;8.17;;;3.70;;
7316;SDS011;3699;51.462;6.696;2022-10-16T00:27:28;6.53;;;4.13;;
7316;SDS011;3699;51.462;6.696;2022-10-16T00:29:54;4.60;;;3.50;;
7316;SDS011;3699;51.462;6.696;2022-10-16T00:32:22;4.97;;;4.00;;
7316;SDS011;3699;51.462;6.696;2022-10-16T00:34:49;5.00;;;4.10;;
7316;SDS011;3699;51.462;6.696;2022-10-16T00:37:16;6.07;;;4.20;;
7316;SDS011;3699;51.462;6.696;2022-10-16T00:39:43;9.40;;;4.20;;
7316;SDS011;3699;51.462;6.696;2022-10-16T00:42:10;5.33;;;4.10;;
7316;SDS011;3699;51.462;6.696;2022-10-16T00:44:43;5.27;;;3.70;;
7316;SDS011;3699;51.462;6.696;2022-10-16T00:47:12;5.13;;;3.93;;
7316;SDS011;3699;51.462;6.696;2022-10-16T00:49:45;4.97;;;4.03;;
7316;SDS011;3699;51.462;6.696;2022-10-16T00:52:13;7.40;;;4.17;;
7316;SDS011;3699;51.462;6.696;2022-10-16T00:54:41;10.60;;;4.30;;
7316;SDS011;3699;51.462;6.696;2022-10-16T00:57:07;4.40;;;3.83;;
7316;SDS011;3699;51.462;6.696;2022-10-16T00:59:35;7.97;;;4.10;;
7316;SDS011;3699;51.462;6.696;2022-10-16T01:02:05;5.70;;;3.90;;
7316;SDS011;3699;51.462;6.696;2022-10-16T01:04:35;5.53;;;4.13;;
7316;SDS011;3699;51.462;6.696;2022-10-16T01:07:08;10.43;;;4.10;;
7316;SDS011;3699;51.462;6.696;2022-10-16T01:09:41;23.07;;;4.97;;
7316;SDS011;3699;51.462;6.696;2022-10-16T01:12:19;5.70;;;3.80;;
7316;SDS011;3699;51.462;6.696;2022-10-16T01:14:53;4.90;;;3.53;;
7316;SDS011;3699;51.462;6.696;2022-10-16T01:17:22;11.30;;;4.13;;
7316;SDS011;3699;51.462;6.696;2022-10-16T01:20:01;5.03;;;3.63;;
7316;SDS011;3699;51.462;6.696;2022-10-16T01:22:37;3.87;;;3.10;;
7316;SDS011;3699;51.462;6.696;2022-10-16T01:25:09;7.47;;;4.00;;
7316;SDS011;3699;51.462;6.696;2022-10-16T01:27:43;10.80;;;3.93;;
7316;SDS011;3699;51.462;6.696;2022-10-16T01:30:13;3.93;;;3.17;;
7316;SDS011;3699;51.462;6.696;2022-10-16T01:32:45;4.60;;;3.77;;
7316;SDS011;3699;51.462;6.696;2022-10-16T01:35:17;3.30;;;3.00;;
7316;SDS011;3699;51.462;6.696;2022-10-16T01:37:48;6.40;;;3.60;;
7316;SDS011;3699;51.462;6.696;2022-10-16T01:40:19;7.23;;;3.57;;
7316;SDS011;3699;51.462;6.696;2022-10-16T01:42:50;7.37;;;3.90;;
7316;SDS011;3699;51.462;6.696;2022-10-16T01:45:21;6.20;;;3.70;;
7316;SDS011;3699;51.462;6.696;2022-10-16T01:47:48;4.63;;;3.40;;
7316;SDS011;3699;51.462;6.696;2022-10-16T01:50:17;9.60;;;3.90;;
7316;SDS011;3699;51.462;6.696;2022-10-16T01:52:47;5.60;;;3.50;;
7316;SDS011;3699;51.462;6.696;2022-10-16T01:55:17;6.03;;;3.60;;
7316;SDS011;3699;51.462;6.696;2022-10-16T01:57:49;4.13;;;3.30;;
7316;SDS011;3699;51.462;6.696;2022-10-16T02:00:19;6.93;;;3.53;;
7316;SDS011;3699;51.462;6.696;2022-10-16T02:02:48;5.17;;;3.30;;
7316;SDS011;3699;51.462;6.696;2022-10-16T02:05:18;6.10;;;3.40;;
7316;SDS011;3699;51.462;6.696;2022-10-16T02:07:50;7.53;;;3.80;;
7316;SDS011;3699;51.462;6.696;2022-10-16T02:10:17;8.63;;;3.10;;
7316;SDS011;3699;51.462;6.696;2022-10-16T02:12:45;4.27;;;3.00;;
7316;SDS011;3699;51.462;6.696;2022-10-16T02:15:17;4.20;;;3.00;;
7316;SDS011;3699;51.462;6.696;2022-10-16T02:17:44;9.93;;;2.80;;
7316;SDS011;3699;51.462;6.696;2022-10-16T02:20:10;3.27;;;2.43;;
7316;SDS011;3699;51.462;6.696;2022-10-16T02:22:38;5.13;;;2.83;;
7316;SDS011;3699;51.462;6.696;2022-10-16T02:25:08;6.57;;;2.73;;
7316;SDS011;3699;51.462;6.696;2022-10-16T02:27:38;4.63;;;3.10;;
7316;SDS011;3699;51.462;6.696;2022-10-16T02:30:11;7.67;;;2.80;;
7316;SDS011;3699;51.462;6.696;2022-10-16T02:32:44;6.33;;;3.10;;
7316;SDS011;3699;51.462;6.696;2022-10-16T02:35:13;6.73;;;2.83;;
7316;SDS011;3699;51.462;6.696;2022-10-16T02:37:43;6.07;;;2.87;;
7316;SDS011;3699;51.462;6.696;2022-10-16T02:40:11;4.97;;;2.80;;
7316;SDS011;3699;51.462;6.696;2022-10-16T02:42:39;6.63;;;3.03;;
7316;SDS011;3699;51.462;6.696;2022-10-16T02:45:07;2.73;;;2.53;;
7316;SDS011;3699;51.462;6.696;2022-10-16T02:47:36;5.00;;;2.87;;
7316;SDS011;3699;51.462;6.696;2022-10-16T02:50:03;8.87;;;3.40;;
7316;SDS011;3699;51.462;6.696;2022-10-16T02:52:30;3.43;;;2.90;;
7316;SDS011;3699;51.462;6.696;2022-10-16T02:54:57;4.70;;;3.27;;
7316;SDS011;3699;51.462;6.696;2022-10-16T02:57:24;4.27;;;3.87;;
7316;SDS011;3699;51.462;6.696;2022-10-16T02:59:50;6.87;;;4.00;;
7316;SDS011;3699;51.462;6.696;2022-10-16T03:02:17;4.73;;;4.23;;
7316;SDS011;3699;51.462;6.696;2022-10-16T03:04:45;4.23;;;3.83;;
7316;SDS011;3699;51.462;6.696;2022-10-16T03:07:12;6.03;;;4.43;;
7316;SDS011;3699;51.462;6.696;2022-10-16T03:09:39;7.53;;;3.93;;
7316;SDS011;3699;51.462;6.696;2022-10-16T03:12:06;15.50;;;5.13;;
7316;SDS011;3699;51.462;6.696;2022-10-16T03:14:33;4.97;;;4.30;;
7316;SDS011;3699;51.462;6.696;2022-10-16T03:16:59;7.20;;;3.50;;
7316;SDS011;3699;51.462;6.696;2022-10-16T03:19:26;7.87;;;3.73;;
7316;SDS011;3699;51.462;6.696;2022-10-16T03:21:54;4.73;;;3.47;;
7316;SDS011;3699;51.462;6.696;2022-10-16T03:24:21;5.23;;;2.70;;
7316;SDS011;3699;51.462;6.696;2022-10-16T03:26:47;3.20;;;3.00;;
7316;SDS011;3699;51.462;6.696;2022-10-16T03:29:14;6.87;;;2.80;;
7316;SDS011;3699;51.462;6.696;2022-10-16T03:31:41;5.50;;;2.90;;
7316;SDS011;3699;51.462;6.696;2022-10-16T03:34:07;3.67;;;2.90;;
7316;SDS011;3699;51.462;6.696;2022-10-16T03:36:34;8.60;;;3.47;;
7316;SDS011;3699;51.462;6.696;2022-10-16T03:39:02;5.10;;;2.60;;
7316;SDS011;3699;51.462;6.696;2022-10-16T03:41:29;4.70;;;2.60;;
7316;SDS011;3699;51.462;6.696;2022-10-16T03:43:56;4.77;;;2.50;;
7316;SDS011;3699;51.462;6.696;2022-10-16T03:46:22;3.77;;;2.37;;
7316;SDS011;3699;51.462;6.696;2022-10-16T03:48:49;3.30;;;2.37;;
7316;SDS011;3699;51.462;6.696;2022-10-16T03:51:16;4.90;;;2.20;;
7316;SDS011;3699;51.462;6.696;2022-10-16T03:53:42;5.73;;;2.63;;
7316;SDS011;3699;51.462;6.696;2022-10-16T03:56:10;5.43;;;2.90;;
7316;SDS011;3699;51.462;6.696;2022-10-16T03:58:37;5.33;;;2.43;;
7316;SDS011;3699;51.462;6.696;2022-10-16T04:01:04;3.43;;;2.17;;
7316;SDS011;3699;51.462;6.696;2022-10-16T04:03:31;3.77;;;2.03;;
7316;SDS011;3699;51.462;6.696;2022-10-16T04:05:57;3.23;;;2.00;;
7316;SDS011;3699;51.462;6.696;2022-10-16T04:08:24;4.03;;;2.63;;
7316;SDS011;3699;51.462;6.696;2022-10-16T04:10:51;2.90;;;2.20;;
7316;SDS011;3699;51.462;6.696;2022-10-16T04:13:19;1.97;;;1.83;;
7316;SDS011;3699;51.462;6.696;2022-10-16T04:15:46;2.37;;;2.07;;
7316;SDS011;3699;51.462;6.696;2022-10-16T04:18:12;2.13;;;2.00;;
7316;SDS011;3699;51.462;6.696;2022-10-16T04:20:39;5.00;;;2.50;;
7316;SDS011;3699;51.462;6.696;2022-10-16T04:23:06;4.27;;;2.30;;
7316;SDS011;3699;51.462;6.696;2022-10-16T04:25:33;2.67;;;2.00;;
7316;SDS011;3699;51.462;6.696;2022-10-16T04:27:59;2.00;;;1.80;;
7316;SDS011;3699;51.462;6.696;2022-10-16T04:30:27;4.77;;;2.00;;
7316;SDS011;3699;51.462;6.696;2022-10-16T04:32:54;2.13;;;1.93;;
7316;SDS011;3699;51.462;6.696;2022-10-16T04:35:21;2.93;;;2.00;;
7316;SDS011;3699;51.462;6.696;2022-10-16T04:37:48;4.37;;;2.17;;
7316;SDS011;3699;51.462;6.696;2022-10-16T04:40:15;2.97;;;2.00;;
7316;SDS011;3699;51.462;6.696;2022-10-16T04:42:42;2.10;;;1.97;;
7316;SDS011;3699;51.462;6.696;2022-10-16T04:45:09;10.80;;;2.20;;
7316;SDS011;3699;51.462;6.696;2022-10-16T04:47:37;2.63;;;2.20;;
7316;SDS011;3699;51.462;6.696;2022-10-16T04:50:04;3.37;;;2.00;;
7316;SDS011;3699;51.462;6.696;2022-10-16T04:52:32;3.50;;;3.20;;
7316;SDS011;3699;51.462;6.696;2022-10-16T04:54:58;4.97;;;2.30;;
7316;SDS011;3699;51.462;6.696;2022-10-16T04:57:27;2.57;;;2.07;;
7316;SDS011;3699;51.462;6.696;2022-10-16T04:59:54;3.87;;;2.20;;
7316;SDS011;3699;51.462;6.696;2022-10-16T05:02:21;2.43;;;2.17;;
7316;SDS011;3699;51.462;6.696;2022-10-16T05:04:49;3.33;;;2.30;;
7316;SDS011;3699;51.462;6.696;2022-10-16T05:07:16;3.83;;;2.37;;
7316;SDS011;3699;51.462;6.696;2022-10-16T05:09:43;5.33;;;2.40;;
7316;SDS011;3699;51.462;6.696;2022-10-16T05:12:10;2.20;;;2.00;;
7316;SDS011;3699;51.462;6.696;2022-10-16T05:14:36;4.10;;;2.33;;
7316;SDS011;3699;51.462;6.696;2022-10-16T05:17:03;5.77;;;2.37;;
7316;SDS011;3699;51.462;6.696;2022-10-16T05:19:30;3.40;;;1.90;;
7316;SDS011;3699;51.462;6.696;2022-10-16T05:21:58;2.90;;;2.40;;
7316;SDS011;3699;51.462;6.696;2022-10-16T05:24:24;2.20;;;2.00;;
7316;SDS011;3699;51.462;6.696;2022-10-16T05:26:51;2.97;;;2.30;;
7316;SDS011;3699;51.462;6.696;2022-10-16T05:29:18;3.90;;;2.63;;
7316;SDS011;3699;51.462;6.696;2022-10-16T05:31:45;3.27;;;2.23;;
7316;SDS011;3699;51.462;6.696;2022-10-16T05:34:12;2.27;;;2.00;;
7316;SDS011;3699;51.462;6.696;2022-10-16T05:36:39;5.50;;;2.07;;
7316;SDS011;3699;51.462;6.696;2022-10-16T05:39:07;5.70;;;2.47;;
7316;SDS011;3699;51.462;6.696;2022-10-16T05:41:33;3.73;;;2.20;;
7316;SDS011;3699;51.462;6.696;2022-10-16T05:44:03;2.53;;;2.07;;
7316;SDS011;3699;51.462;6.696;2022-10-16T05:46:30;3.63;;;2.30;;
7316;SDS011;3699;51.462;6.696;2022-10-16T05:48:57;2.80;;;2.50;;
7316;SDS011;3699;51.462;6.696;2022-10-16T05:51:24;3.43;;;2.73;;
7316;SDS011;3699;51.462;6.696;2022-10-16T05:53:51;3.27;;;2.70;;
7316;SDS011;3699;51.462;6.696;2022-10-16T05:56:20;6.93;;;3.00;;
7316;SDS011;3699;51.462;6.696;2022-10-16T05:58:46;2.67;;;2.20;;
7316;SDS011;3699;51.462;6.696;2022-10-16T06:01:14;3.43;;;2.63;;
7316;SDS011;3699;51.462;6.696;2022-10-16T06:03:42;6.30;;;3.20;;
7316;SDS011;3699;51.462;6.696;2022-10-16T06:06:09;3.60;;;2.83;;
7316;SDS011;3699;51.462;6.696;2022-10-16T06:08:36;5.40;;;2.80;;
7316;SDS011;3699;51.462;6.696;2022-10-16T06:11:04;6.40;;;2.80;;
7316;SDS011;3699;51.462;6.696;2022-10-16T06:13:34;3.07;;;2.60;;
7316;SDS011;3699;51.462;6.696;2022-10-16T06:16:01;4.93;;;2.80;;
7316;SDS011;3699;51.462;6.696;2022-10-16T06:18:29;3.07;;;2.60;;
7316;SDS011;3699;51.462;6.696;2022-10-16T06:20:56;3.40;;;3.10;;
7316;SDS011;3699;51.462;6.696;2022-10-16T06:23:24;6.40;;;3.27;;
7316;SDS011;3699;51.462;6.696;2022-10-16T06:25:51;3.27;;;2.70;;
7316;SDS011;3699;51.462;6.696;2022-10-16T06:28:17;3.37;;;3.07;;
7316;SDS011;3699;51.462;6.696;2022-10-16T06:30:45;5.07;;;2.77;;
7316;SDS011;3699;51.462;6.696;2022-10-16T06:33:12;5.93;;;3.67;;
7316;SDS011;3699;51.462;6.696;2022-10-16T06:35:39;3.57;;;2.80;;
7316;SDS011;3699;51.462;6.696;2022-10-16T06:38:06;5.87;;;3.50;;
7316;SDS011;3699;51.462;6.696;2022-10-16T06:40:32;4.70;;;3.57;;
7316;SDS011;3699;51.462;6.696;2022-10-16T06:42:59;4.67;;;3.10;;
7316;SDS011;3699;51.462;6.696;2022-10-16T06:45:26;6.43;;;3.30;;
7316;SDS011;3699;51.462;6.696;2022-10-16T06:47:54;4.70;;;3.53;;
7316;SDS011;3699;51.462;6.696;2022-10-16T06:50:20;4.23;;;3.17;;
7316;SDS011;3699;51.462;6.696;2022-10-16T06:52:47;4.73;;;3.20;;
7316;SDS011;3699;51.462;6.696;2022-10-16T06:55:14;4.37;;;3.23;;
7316;SDS011;3699;51.462;6.696;2022-10-16T06:57:42;4.80;;;2.87;;
7316;SDS011;3699;51.462;6.696;2022-10-16T07:00:09;4.20;;;3.20;;
7316;SDS011;3699;51.462;6.696;2022-10-16T07:02:36;6.70;;;3.07;;
7316;SDS011;3699;51.462;6.696;2022-10-16T07:05:04;5.10;;;3.20;;
7316;SDS011;3699;51.462;6.696;2022-10-16T07:07:31;6.47;;;3.27;;
7316;SDS011;3699;51.462;6.696;2022-10-16T07:09:58;3.30;;;2.90;;
7316;SDS011;3699;51.462;6.696;2022-10-16T07:12:24;3.77;;;2.93;;
7316;SDS011;3699;51.462;6.696;2022-10-16T07:14:51;4.13;;;2.70;;
7316;SDS011;3699;51.462;6.696;2022-10-16T07:17:19;5.60;;;2.80;;
7316;SDS011;3699;51.462;6.696;2022-10-16T07:19:46;4.30;;;3.13;;
7316;SDS011;3699;51.462;6.696;2022-10-16T07:22:14;6.80;;;3.03;;
7316;SDS011;3699;51.462;6.696;2022-10-16T07:24:41;3.10;;;2.80;;
7316;SDS011;3699;51.462;6.696;2022-10-16T07:27:08;2.90;;;2.70;;
7316;SDS011;3699;51.462;6.696;2022-10-16T07:29:35;3.20;;;2.90;;
7316;SDS011;3699;51.462;6.696;2022-10-16T07:32:02;2.53;;;2.33;;
7316;SDS011;3699;51.462;6.696;2022-10-16T07:34:29;3.13;;;2.40;;
7316;SDS011;3699;51.462;6.696;2022-10-16T07:36:55;2.60;;;2.37;;
7316;SDS011;3699;51.462;6.696;2022-10-16T07:39:23;2.43;;;2.23;;
7316;SDS011;3699;51.462;6.696;2022-10-16T07:41:50;3.97;;;2.27;;
7316;SDS011;3699;51.462;6.696;2022-10-16T07:44:17;2.87;;;2.10;;
7316;SDS011;3699;51.462;6.696;2022-10-16T07:46:43;5.93;;;2.27;;
7316;SDS011;3699;51.462;6.696;2022-10-16T07:49:10;4.10;;;2.13;;
7316;SDS011;3699;51.462;6.696;2022-10-16T07:51:37;2.10;;;2.00;;
7316;SDS011;3699;51.462;6.696;2022-10-16T07:54:04;2.10;;;1.93;;
7316;SDS011;3699;51.462;6.696;2022-10-16T07:56:32;3.27;;;1.87;;
7316;SDS011;3699;51.462;6.696;2022-10-16T07:58:59;4.77;;;2.53;;
7316;SDS011;3699;51.462;6.696;2022-10-16T08:01:25;3.40;;;2.17;;
7316;SDS011;3699;51.462;6.696;2022-10-16T08:03:52;4.83;;;2.63;;
7316;SDS011;3699;51.462;6.696;2022-10-16T08:06:20;4.13;;;2.73;;
7316;SDS011;3699;51.462;6.696;2022-10-16T08:08:47;4.53;;;2.47;;
7316;SDS011;3699;51.462;6.696;2022-10-16T08:11:14;2.87;;;2.10;;
7316;SDS011;3699;51.462;6.696;2022-10-16T08:13:44;2.97;;;2.30;;
7316;SDS011;3699;51.462;6.696;2022-10-16T08:16:10;3.20;;;2.00;;
7316;SDS011;3699;51.462;6.696;2022-10-16T08:18:38;2.63;;;2.43;;
7316;SDS011;3699;51.462;6.696;2022-10-16T08:21:06;2.70;;;2.17;;
7316;SDS011;3699;51.462;6.696;2022-10-16T08:23:34;4.93;;;2.23;;
7316;SDS011;3699;51.462;6.696;2022-10-16T08:26:04;2.83;;;2.37;;
7316;SDS011;3699;51.462;6.696;2022-10-16T08:28:32;2.30;;;2.10;;
7316;SDS011;3699;51.462;6.696;2022-10-16T08:31:08;5.33;;;2.13;;
7316;SDS011;3699;51.462;6.696;2022-10-16T08:33:36;2.50;;;2.07;;
7316;SDS011;3699;51.462;6.696;2022-10-16T08:36:03;6.37;;;2.53;;
7316;SDS011;3699;51.462;6.696;2022-10-16T08:38:31;2.97;;;2.03;;
7316;SDS011;3699;51.462;6.696;2022-10-16T08:41:01;6.67;;;2.50;;
7316;SDS011;3699;51.462;6.696;2022-10-16T08:43:49;2.73;;;2.50;;
7316;SDS011;3699;51.462;6.696;2022-10-16T08:46:38;2.97;;;2.00;;
7316;SDS011;3699;51.462;6.696;2022-10-16T08:49:12;3.27;;;1.93;;
7316;SDS011;3699;51.462;6.696;2022-10-16T08:51:40;7.27;;;2.33;;
7316;SDS011;3699;51.462;6.696;2022-10-16T08:54:11;32.27;;;3.57;;
7316;SDS011;3699;51.462;6.696;2022-10-16T08:56:49;3.57;;;1.77;;
7316;SDS011;3699;51.462;6.696;2022-10-16T08:59:15;4.97;;;2.03;;
7316;SDS011;3699;51.462;6.696;2022-10-16T09:01:44;3.67;;;1.90;;
7316;SDS011;3699;51.462;6.696;2022-10-16T09:07:19;3.87;;;2.00;;
7316;SDS011;3699;51.462;6.696;2022-10-16T09:10:05;5.77;;;2.30;;
7316;SDS011;3699;51.462;6.696;2022-10-16T09:12:48;6.83;;;2.37;;
7316;SDS011;3699;51.462;6.696;2022-10-16T09:15:23;2.90;;;1.70;;
7316;SDS011;3699;51.462;6.696;2022-10-16T09:18:01;2.87;;;2.13;;
7316;SDS011;3699;51.462;6.696;2022-10-16T09:20:39;2.23;;;1.83;;
7316;SDS011;3699;51.462;6.696;2022-10-16T09:23:15;5.43;;;2.17;;
7316;SDS011;3699;51.462;6.696;2022-10-16T09:25:44;2.93;;;2.27;;
7316;SDS011;3699;51.462;6.696;2022-10-16T09:28:12;2.50;;;1.67;;
7316;SDS011;3699;51.462;6.696;2022-10-16T09:30:39;3.77;;;2.00;;
7316;SDS011;3699;51.462;6.696;2022-10-16T09:33:07;4.53;;;2.20;;
7316;SDS011;3699;51.462;6.696;2022-10-16T09:35:37;2.00;;;1.80;;
7316;SDS011;3699;51.462;6.696;2022-10-16T09:38:05;3.00;;;1.80;;
7316;SDS011;3699;51.462;6.696;2022-10-16T09:40:33;3.77;;;2.00;;
7316;SDS011;3699;51.462;6.696;2022-10-16T09:43:03;2.47;;;1.57;;
7316;SDS011;3699;51.462;6.696;2022-10-16T09:45:40;1.93;;;1.60;;
7316;SDS011;3699;51.462;6.696;2022-10-16T09:48:12;5.87;;;1.93;;
7316;SDS011;3699;51.462;6.696;2022-10-16T09:50:39;4.17;;;2.20;;
7316;SDS011;3699;51.462;6.696;2022-10-16T09:53:08;1.53;;;1.43;;
7316;SDS011;3699;51.462;6.696;2022-10-16T09:55:47;2.53;;;1.97;;
7316;SDS011;3699;51.462;6.696;2022-10-16T09:58:14;3.90;;;1.87;;
7316;SDS011;3699;51.462;6.696;2022-10-16T10:00:42;2.00;;;1.30;;
7316;SDS011;3699;51.462;6.696;2022-10-16T10:03:18;2.47;;;1.80;;
7316;SDS011;3699;51.462;6.696;2022-10-16T10:06:00;4.10;;;1.90;;
7316;SDS011;3699;51.462;6.696;2022-10-16T10:08:31;5.03;;;2.00;;
7316;SDS011;3699;51.462;6.696;2022-10-16T10:10:58;1.90;;;1.60;;
7316;SDS011;3699;51.462;6.696;2022-10-16T10:13:24;2.50;;;1.50;;
7316;SDS011;3699;51.462;6.696;2022-10-16T10:15:52;3.00;;;1.60;;
7316;SDS011;3699;51.462;6.696;2022-10-16T10:18:21;3.27;;;1.30;;
7316;SDS011;3699;51.462;6.696;2022-10-16T10:20:56;2.83;;;1.77;;
7316;SDS011;3699;51.462;6.696;2022-10-16T10:23:25;3.03;;;1.50;;
7316;SDS011;3699;51.462;6.696;2022-10-16T10:25:55;2.73;;;1.60;;
7316;SDS011;3699;51.462;6.696;2022-10-16T10:28:35;2.73;;;1.70;;
7316;SDS011;3699;51.462;6.696;2022-10-16T10:31:13;1.80;;;1.40;;
7316;SDS011;3699;51.462;6.696;2022-10-16T10:33:47;2.93;;;1.50;;
7316;SDS011;3699;51.462;6.696;2022-10-16T10:36:25;1.87;;;1.37;;
7316;SDS011;3699;51.462;6.696;2022-10-16T10:38:56;5.00;;;1.57;;
7316;SDS011;3699;51.462;6.696;2022-10-16T10:41:29;1.53;;;1.43;;
7316;SDS011;3699;51.462;6.696;2022-10-16T10:44:22;2.03;;;1.43;;
7316;SDS011;3699;51.462;6.696;2022-10-16T10:46:56;4.50;;;1.50;;
7316;SDS011;3699;51.462;6.696;2022-10-16T10:49:34;2.23;;;1.50;;
7316;SDS011;3699;51.462;6.696;2022-10-16T10:52:13;6.10;;;1.60;;
7316;SDS011;3699;51.462;6.696;2022-10-16T10:54:58;7.70;;;2.87;;
7316;SDS011;3699;51.462;6.696;2022-10-16T10:57:35;3.93;;;1.60;;
7316;SDS011;3699;51.462;6.696;2022-10-16T11:00:11;2.23;;;1.63;;
7316;SDS011;3699;51.462;6.696;2022-10-16T11:02:48;4.47;;;1.60;;
7316;SDS011;3699;51.462;6.696;2022-10-16T11:05:29;3.73;;;1.60;;
7316;SDS011;3699;51.462;6.696;2022-10-16T11:08:02;3.37;;;1.40;;
7316;SDS011;3699;51.462;6.696;2022-10-16T11:10:38;3.03;;;1.70;;
7316;SDS011;3699;51.462;6.696;2022-10-16T11:13:13;2.10;;;1.40;;
7316;SDS011;3699;51.462;6.696;2022-10-16T11:15:48;2.93;;;1.40;;
7316;SDS011;3699;51.462;6.696;2022-10-16T11:18:18;2.43;;;1.40;;
7316;SDS011;3699;51.462;6.696;2022-10-16T11:20:49;2.60;;;1.50;;
7316;SDS011;3699;51.462;6.696;2022-10-16T11:23:21;1.30;;;1.20;;
7316;SDS011;3699;51.462;6.696;2022-10-16T11:25:51;2.93;;;1.50;;
7316;SDS011;3699;51.462;6.696;2022-10-16T11:28:19;3.07;;;1.27;;
7316;SDS011;3699;51.462;6.696;2022-10-16T11:30:53;3.17;;;1.37;;
7316;SDS011;3699;51.462;6.696;2022-10-16T11:33:25;4.93;;;1.50;;
7316;SDS011;3699;51.462;6.696;2022-10-16T11:35:59;2.47;;;1.40;;
7316;SDS011;3699;51.462;6.696;2022-10-16T11:38:33;2.80;;;1.40;;
7316;SDS011;3699;51.462;6.696;2022-10-16T11:41:03;2.27;;;1.40;;
7316;SDS011;3699;51.462;6.696;2022-10-16T11:43:39;3.57;;;1.70;;
7316;SDS011;3699;51.462;6.696;2022-10-16T11:46:10;2.93;;;1.53;;
7316;SDS011;3699;51.462;6.696;2022-10-16T11:48:41;1.93;;;1.27;;
7316;SDS011;3699;51.462;6.696;2022-10-16T11:51:16;2.43;;;1.93;;
7316;SDS011;3699;51.462;6.696;2022-10-16T11:53:50;2.77;;;1.50;;
7316;SDS011;3699;51.462;6.696;2022-10-16T11:56:21;3.03;;;1.63;;
7316;SDS011;3699;51.462;6.696;2022-10-16T11:58:51;1.70;;;1.50;;
7316;SDS011;3699;51.462;6.696;2022-10-16T12:01:25;1.80;;;1.47;;
7316;SDS011;3699;51.462;6.696;2022-10-16T12:04:02;4.33;;;1.57;;
7316;SDS011;3699;51.462;6.696;2022-10-16T12:06:45;1.97;;;1.40;;
7316;SDS011;3699;51.462;6.696;2022-10-16T12:09:16;3.20;;;1.30;;
7316;SDS011;3699;51.462;6.696;2022-10-16T12:11:47;3.43;;;2.10;;
7316;SDS011;3699;51.462;6.696;2022-10-16T12:14:19;4.43;;;1.90;;
7316;SDS011;3699;51.462;6.696;2022-10-16T12:17:23;2.07;;;1.70;;
7316;SDS011;3699;51.462;6.696;2022-10-16T12:19:58;2.57;;;1.40;;
7316;SDS011;3699;51.462;6.696;2022-10-16T12:22:28;3.03;;;1.30;;
7316;SDS011;3699;51.462;6.696;2022-10-16T12:24:57;2.47;;;1.50;;
7316;SDS011;3699;51.462;6.696;2022-10-16T12:27:25;2.97;;;1.50;;
7316;SDS011;3699;51.462;6.696;2022-10-16T12:29:55;1.37;;;1.27;;
7316;SDS011;3699;51.462;6.696;2022-10-16T12:32:27;2.87;;;1.60;;
7316;SDS011;3699;51.462;6.696;2022-10-16T12:34:56;4.93;;;2.20;;
7316;SDS011;3699;51.462;6.696;2022-10-16T12:37:25;4.50;;;1.60;;
7316;SDS011;3699;51.462;6.696;2022-10-16T12:39:55;5.30;;;1.60;;
7316;SDS011;3699;51.462;6.696;2022-10-16T12:42:31;2.63;;;1.50;;
7316;SDS011;3699;51.462;6.696;2022-10-16T12:45:00;3.90;;;1.60;;
7316;SDS011;3699;51.462;6.696;2022-10-16T12:47:36;2.03;;;1.50;;
7316;SDS011;3699;51.462;6.696;2022-10-16T12:50:26;2.50;;;1.43;;
7316;SDS011;3699;51.462;6.696;2022-10-16T12:52:56;2.70;;;1.43;;
7316;SDS011;3699;51.462;6.696;2022-10-16T12:55:25;1.57;;;1.50;;
7316;SDS011;3699;51.462;6.696;2022-10-16T12:57:58;2.37;;;1.50;;
7316;SDS011;3699;51.462;6.696;2022-10-16T13:00:37;2.77;;;1.40;;
7316;SDS011;3699;51.462;6.696;2022-10-16T13:03:28;2.50;;;1.40;;
7316;SDS011;3699;51.462;6.696;2022-10-16T13:06:23;2.50;;;1.37;;
7316;SDS011;3699;51.462;6.696;2022-10-16T13:09:02;3.40;;;1.60;;
7316;SDS011;3699;51.462;6.696;2022-10-16T13:11:46;3.17;;;1.40;;
7316;SDS011;3699;51.462;6.696;2022-10-16T13:14:27;3.23;;;1.47;;
7316;SDS011;3699;51.462;6.696;2022-10-16T13:17:14;3.47;;;1.60;;
7316;SDS011;3699;51.462;6.696;2022-10-16T13:19:51;1.57;;;1.30;;
7316;SDS011;3699;51.462;6.696;2022-10-16T13:22:27;3.00;;;1.33;;
7316;SDS011;3699;51.462;6.696;2022-10-16T13:25:02;3.53;;;1.37;;
7316;SDS011;3699;51.462;6.696;2022-10-16T13:27:44;2.47;;;1.30;;
7316;SDS011;3699;51.462;6.696;2022-10-16T13:30:18;2.50;;;1.50;;
7316;SDS011;3699;51.462;6.696;2022-10-16T13:32:48;2.30;;;1.23;;
7316;SDS011;3699;51.462;6.696;2022-10-16T13:35:21;3.00;;;1.87;;
7316;SDS011;3699;51.462;6.696;2022-10-16T13:37:49;3.27;;;1.40;;
7316;SDS011;3699;51.462;6.696;2022-10-16T13:40:21;7.27;;;2.67;;
7316;SDS011;3699;51.462;6.696;2022-10-16T13:42:50;2.83;;;1.60;;
7316;SDS011;3699;51.462;6.696;2022-10-16T13:45:19;1.80;;;1.47;;
7316;SDS011;3699;51.462;6.696;2022-10-16T13:47:47;3.60;;;1.60;;
7316;SDS011;3699;51.462;6.696;2022-10-16T13:50:15;3.63;;;1.53;;
7316;SDS011;3699;51.462;6.696;2022-10-16T13:52:43;3.40;;;1.33;;
7316;SDS011;3699;51.462;6.696;2022-10-16T13:55:10;3.00;;;1.50;;
7316;SDS011;3699;51.462;6.696;2022-10-16T13:57:38;3.37;;;1.60;;
7316;SDS011;3699;51.462;6.696;2022-10-16T14:00:18;3.07;;;1.43;;
7316;SDS011;3699;51.462;6.696;2022-10-16T14:02:49;3.53;;;1.50;;
7316;SDS011;3699;51.462;6.696;2022-10-16T14:05:18;6.17;;;1.70;;
7316;SDS011;3699;51.462;6.696;2022-10-16T14:07:47;1.37;;;1.23;;
7316;SDS011;3699;51.462;6.696;2022-10-16T14:10:21;11.30;;;1.90;;
7316;SDS011;3699;51.462;6.696;2022-10-16T14:13:00;3.20;;;1.80;;
7316;SDS011;3699;51.462;6.696;2022-10-16T14:15:30;5.63;;;1.80;;
7316;SDS011;3699;51.462;6.696;2022-10-16T14:17:58;5.63;;;1.67;;
7316;SDS011;3699;51.462;6.696;2022-10-16T14:20:26;2.50;;;1.60;;
7316;SDS011;3699;51.462;6.696;2022-10-16T14:23:00;2.73;;;1.60;;
7316;SDS011;3699;51.462;6.696;2022-10-16T14:25:29;4.13;;;1.53;;
7316;SDS011;3699;51.462;6.696;2022-10-16T14:28:02;1.63;;;1.47;;
7316;SDS011;3699;51.462;6.696;2022-10-16T14:30:33;4.73;;;1.70;;
7316;SDS011;3699;51.462;6.696;2022-10-16T14:33:02;2.67;;;1.50;;
7316;SDS011;3699;51.462;6.696;2022-10-16T14:35:31;1.53;;;1.43;;
7316;SDS011;3699;51.462;6.696;2022-10-16T14:38:00;3.20;;;1.53;;
7316;SDS011;3699;51.462;6.696;2022-10-16T14:40:28;1.77;;;1.43;;
7316;SDS011;3699;51.462;6.696;2022-10-16T14:42:57;1.60;;;1.50;;
7316;SDS011;3699;51.462;6.696;2022-10-16T14:45:26;2.63;;;1.30;;
7316;SDS011;3699;51.462;6.696;2022-10-16T14:47:57;1.60;;;1.50;;
7316;SDS011;3699;51.462;6.696;2022-10-16T14:50:26;1.87;;;1.27;;
7316;SDS011;3699;51.462;6.696;2022-10-16T14:52:53;2.10;;;1.40;;
7316;SDS011;3699;51.462;6.696;2022-10-16T14:55:20;2.00;;;1.77;;
7316;SDS011;3699;51.462;6.696;2022-10-16T14:57:47;3.80;;;1.80;;
7316;SDS011;3699;51.462;6.696;2022-10-16T15:00:18;3.33;;;2.37;;
7316;SDS011;3699;51.462;6.696;2022-10-16T15:02:47;2.00;;;1.30;;
7316;SDS011;3699;51.462;6.696;2022-10-16T15:05:17;1.97;;;1.40;;
7316;SDS011;3699;51.462;6.696;2022-10-16T15:07:47;3.10;;;1.70;;
7316;SDS011;3699;51.462;6.696;2022-10-16T15:10:14;2.03;;;1.50;;
7316;SDS011;3699;51.462;6.696;2022-10-16T15:12:42;2.80;;;1.47;;
7316;SDS011;3699;51.462;6.696;2022-10-16T15:15:23;3.27;;;1.80;;
7316;SDS011;3699;51.462;6.696;2022-10-16T15:17:56;5.23;;;1.80;;
7316;SDS011;3699;51.462;6.696;2022-10-16T15:20:27;4.10;;;1.67;;
7316;SDS011;3699;51.462;6.696;2022-10-16T15:22:55;2.10;;;1.50;;
7316;SDS011;3699;51.462;6.696;2022-10-16T15:25:27;2.83;;;1.83;;
7316;SDS011;3699;51.462;6.696;2022-10-16T15:27:59;2.80;;;1.40;;
7316;SDS011;3699;51.462;6.696;2022-10-16T15:30:27;2.57;;;1.57;;
7316;SDS011;3699;51.462;6.696;2022-10-16T15:32:54;4.27;;;3.47;;
7316;SDS011;3699;51.462;6.696;2022-10-16T15:35:22;1.93;;;1.70;;